sensor_id;sensor_type;location;lat;lon;timestamp;temperature;humidity
70184;DHT22;57554;51.546;6.776;2023-09-08T00:00:55;22.20;54.50
70184;DHT22;57554;51.546;6.776;2023-09-08T00:03:21;22.20;54.60
70184;DHT22;57554;51.546;6.776;2023-09-08T00:05:47;22.20;54.80
70184;DHT22;57554;51.546;6.776;2023-09-08T00:08:12;22.10;55.10
70184;DHT22;57554;51.546;6.776;2023-09-08T00:10:38;22.00;55.30
70184;DHT22;57554;51.546;6.776;2023-09-08T00:13:03;21.90;55.50
70184;DHT22;57554;51.546;6.776;2023-09-08T00:15:29;21.90;55.40
70184;DHT22;57554;51.546;6.776;2023-09-08T00:17:55;21.80;55.50
70184;DHT22;57554;51.546;6.776;2023-09-08T00:20:22;21.70;55.80
70184;DHT22;57554;51.546;6.776;2023-09-08T00:22:48;21.60;56.00
70184;DHT22;57554;51.546;6.776;2023-09-08T00:25:13;21.60;56.30
70184;DHT22;57554;51.546;6.776;2023-09-08T00:27:39;21.50;56.60
70184;DHT22;57554;51.546;6.776;2023-09-08T00:30:05;21.40;56.90
70184;DHT22;57554;51.546;6.776;2023-09-08T00:32:31;21.30;57.10
70184;DHT22;57554;51.546;6.776;2023-09-08T00:34:57;21.20;57.30
70184;DHT22;57554;51.546;6.776;2023-09-08T00:40:31;21.00;57.60
70184;DHT22;57554;51.546;6.776;2023-09-08T00:42:58;20.90;57.80
70184;DHT22;57554;51.546;6.776;2023-09-08T00:45:23;20.80;58.10
70184;DHT22;57554;51.546;6.776;2023-09-08T00:47:49;20.70;58.60
70184;DHT22;57554;51.546;6.776;2023-09-08T00:50:14;20.70;58.80
70184;DHT22;57554;51.546;6.776;2023-09-08T00:52:40;20.60;58.90
70184;DHT22;57554;51.546;6.776;2023-09-08T00:55:06;20.60;59.10
70184;DHT22;57554;51.546;6.776;2023-09-08T00:57:32;20.50;59.40
70184;DHT22;57554;51.546;6.776;2023-09-08T00:59:58;20.50;59.70
70184;DHT22;57554;51.546;6.776;2023-09-08T01:02:24;20.40;59.70
70184;DHT22;57554;51.546;6.776;2023-09-08T01:04:50;20.40;59.80
70184;DHT22;57554;51.546;6.776;2023-09-08T01:07:16;20.30;60.00
70184;DHT22;57554;51.546;6.776;2023-09-08T01:09:42;20.30;60.10
70184;DHT22;57554;51.546;6.776;2023-09-08T01:12:08;20.20;60.40
70184;DHT22;57554;51.546;6.776;2023-09-08T01:14:34;20.20;60.80
70184;DHT22;57554;51.546;6.776;2023-09-08T01:16:59;20.10;60.80
70184;DHT22;57554;51.546;6.776;2023-09-08T01:19:25;20.10;61.10
70184;DHT22;57554;51.546;6.776;2023-09-08T01:27:21;19.90;61.10
70184;DHT22;57554;51.546;6.776;2023-09-08T01:29:49;19.90;61.30
70184;DHT22;57554;51.546;6.776;2023-09-08T01:32:16;19.90;61.40
70184;DHT22;57554;51.546;6.776;2023-09-08T01:34:41;19.80;61.50
70184;DHT22;57554;51.546;6.776;2023-09-08T01:37:07;19.80;61.50
70184;DHT22;57554;51.546;6.776;2023-09-08T01:39:33;19.70;61.60
70184;DHT22;57554;51.546;6.776;2023-09-08T01:41:59;19.70;61.80
70184;DHT22;57554;51.546;6.776;2023-09-08T01:44:24;19.60;61.80
70184;DHT22;57554;51.546;6.776;2023-09-08T01:46:50;19.60;61.80
70184;DHT22;57554;51.546;6.776;2023-09-08T01:49:22;19.60;61.80
70184;DHT22;57554;51.546;6.776;2023-09-08T01:51:47;19.50;61.90
70184;DHT22;57554;51.546;6.776;2023-09-08T01:54:13;19.40;62.00
70184;DHT22;57554;51.546;6.776;2023-09-08T01:56:38;19.40;62.20
70184;DHT22;57554;51.546;6.776;2023-09-08T01:59:04;19.30;62.40
70184;DHT22;57554;51.546;6.776;2023-09-08T02:01:30;19.30;62.60
70184;DHT22;57554;51.546;6.776;2023-09-08T02:03:56;19.20;62.80
70184;DHT22;57554;51.546;6.776;2023-09-08T02:06:22;19.20;62.90
70184;DHT22;57554;51.546;6.776;2023-09-08T02:08:47;19.10;63.10
70184;DHT22;57554;51.546;6.776;2023-09-08T02:11:13;19.10;63.50
70184;DHT22;57554;51.546;6.776;2023-09-08T02:13:40;19.00;63.70
70184;DHT22;57554;51.546;6.776;2023-09-08T02:16:07;19.00;63.80
70184;DHT22;57554;51.546;6.776;2023-09-08T02:18:33;19.00;63.90
70184;DHT22;57554;51.546;6.776;2023-09-08T02:20:59;19.00;63.90
70184;DHT22;57554;51.546;6.776;2023-09-08T02:23:24;19.00;64.00
70184;DHT22;57554;51.546;6.776;2023-09-08T02:25:50;18.90;64.00
70184;DHT22;57554;51.546;6.776;2023-09-08T02:28:15;18.90;64.20
70184;DHT22;57554;51.546;6.776;2023-09-08T02:30:41;18.90;64.40
70184;DHT22;57554;51.546;6.776;2023-09-08T02:33:06;18.80;64.40
70184;DHT22;57554;51.546;6.776;2023-09-08T02:35:36;18.80;64.30
70184;DHT22;57554;51.546;6.776;2023-09-08T02:38:03;18.70;64.30
70184;DHT22;57554;51.546;6.776;2023-09-08T02:40:28;18.70;64.40
70184;DHT22;57554;51.546;6.776;2023-09-08T02:42:54;18.60;64.40
70184;DHT22;57554;51.546;6.776;2023-09-08T02:45:20;18.60;64.50
70184;DHT22;57554;51.546;6.776;2023-09-08T02:47:45;18.60;64.70
70184;DHT22;57554;51.546;6.776;2023-09-08T02:50:11;18.50;64.70
70184;DHT22;57554;51.546;6.776;2023-09-08T02:52:36;18.50;64.90
70184;DHT22;57554;51.546;6.776;2023-09-08T02:55:02;18.50;65.00
70184;DHT22;57554;51.546;6.776;2023-09-08T02:57:28;18.40;65.00
70184;DHT22;57554;51.546;6.776;2023-09-08T02:59:53;18.40;65.10
70184;DHT22;57554;51.546;6.776;2023-09-08T03:02:22;18.40;65.20
70184;DHT22;57554;51.546;6.776;2023-09-08T03:04:48;18.40;65.40
70184;DHT22;57554;51.546;6.776;2023-09-08T03:07:14;18.30;65.50
70184;DHT22;57554;51.546;6.776;2023-09-08T03:09:39;18.30;65.70
70184;DHT22;57554;51.546;6.776;2023-09-08T03:12:05;18.30;65.70
70184;DHT22;57554;51.546;6.776;2023-09-08T03:14:30;18.30;65.70
70184;DHT22;57554;51.546;6.776;2023-09-08T03:16:56;18.30;65.60
70184;DHT22;57554;51.546;6.776;2023-09-08T03:19:21;18.20;65.70
70184;DHT22;57554;51.546;6.776;2023-09-08T03:21:47;18.20;65.90
70184;DHT22;57554;51.546;6.776;2023-09-08T03:24:12;18.20;66.00
70184;DHT22;57554;51.546;6.776;2023-09-08T03:26:38;18.10;66.10
70184;DHT22;57554;51.546;6.776;2023-09-08T03:29:06;18.10;66.00
70184;DHT22;57554;51.546;6.776;2023-09-08T03:31:31;18.10;66.10
70184;DHT22;57554;51.546;6.776;2023-09-08T03:33:57;18.10;66.00
70184;DHT22;57554;51.546;6.776;2023-09-08T03:36:22;18.10;66.00
70184;DHT22;57554;51.546;6.776;2023-09-08T03:38:48;18.00;66.20
70184;DHT22;57554;51.546;6.776;2023-09-08T03:41:14;18.00;66.10
70184;DHT22;57554;51.546;6.776;2023-09-08T03:43:40;18.00;66.10
70184;DHT22;57554;51.546;6.776;2023-09-08T03:46:05;17.90;66.20
70184;DHT22;57554;51.546;6.776;2023-09-08T03:48:31;17.90;66.20
70184;DHT22;57554;51.546;6.776;2023-09-08T03:50:56;17.90;66.30
70184;DHT22;57554;51.546;6.776;2023-09-08T03:53:22;17.90;66.30
70184;DHT22;57554;51.546;6.776;2023-09-08T03:55:48;17.80;66.50
70184;DHT22;57554;51.546;6.776;2023-09-08T03:58:13;17.80;66.50
70184;DHT22;57554;51.546;6.776;2023-09-08T04:00:39;17.80;66.70
70184;DHT22;57554;51.546;6.776;2023-09-08T04:03:04;17.80;66.90
70184;DHT22;57554;51.546;6.776;2023-09-08T04:05:30;17.80;66.80
70184;DHT22;57554;51.546;6.776;2023-09-08T04:07:55;17.80;66.70
70184;DHT22;57554;51.546;6.776;2023-09-08T04:10:21;17.80;66.80
70184;DHT22;57554;51.546;6.776;2023-09-08T04:12:47;17.70;66.80
70184;DHT22;57554;51.546;6.776;2023-09-08T04:15:12;17.70;66.90
70184;DHT22;57554;51.546;6.776;2023-09-08T04:17:38;17.70;67.00
70184;DHT22;57554;51.546;6.776;2023-09-08T04:20:07;17.70;67.00
70184;DHT22;57554;51.546;6.776;2023-09-08T04:22:34;17.60;67.00
70184;DHT22;57554;51.546;6.776;2023-09-08T04:25:00;17.60;67.10
70184;DHT22;57554;51.546;6.776;2023-09-08T04:27:25;17.60;67.00
70184;DHT22;57554;51.546;6.776;2023-09-08T04:29:51;17.50;67.10
70184;DHT22;57554;51.546;6.776;2023-09-08T04:32:16;17.50;67.30
70184;DHT22;57554;51.546;6.776;2023-09-08T04:34:42;17.50;67.30
70184;DHT22;57554;51.546;6.776;2023-09-08T04:37:08;17.50;67.40
70184;DHT22;57554;51.546;6.776;2023-09-08T04:39:34;17.40;67.50
70184;DHT22;57554;51.546;6.776;2023-09-08T04:42:00;17.40;67.70
70184;DHT22;57554;51.546;6.776;2023-09-08T04:44:26;17.40;67.90
70184;DHT22;57554;51.546;6.776;2023-09-08T04:46:52;17.40;68.00
70184;DHT22;57554;51.546;6.776;2023-09-08T04:49:18;17.40;68.10
70184;DHT22;57554;51.546;6.776;2023-09-08T04:51:44;17.40;68.20
70184;DHT22;57554;51.546;6.776;2023-09-08T04:54:10;17.40;68.30
70184;DHT22;57554;51.546;6.776;2023-09-08T04:56:35;17.40;68.40
70184;DHT22;57554;51.546;6.776;2023-09-08T04:59:01;17.40;68.50
70184;DHT22;57554;51.546;6.776;2023-09-08T05:01:27;17.40;68.60
70184;DHT22;57554;51.546;6.776;2023-09-08T05:03:55;17.40;68.60
70184;DHT22;57554;51.546;6.776;2023-09-08T05:06:20;17.40;68.60
70184;DHT22;57554;51.546;6.776;2023-09-08T05:08:46;17.40;68.50
70184;DHT22;57554;51.546;6.776;2023-09-08T05:11:11;17.40;68.40
70184;DHT22;57554;51.546;6.776;2023-09-08T05:13:37;17.40;68.40
70184;DHT22;57554;51.546;6.776;2023-09-08T05:16:03;17.40;68.20
70184;DHT22;57554;51.546;6.776;2023-09-08T05:18:40;17.40;68.10
70184;DHT22;57554;51.546;6.776;2023-09-08T05:21:06;17.40;68.10
70184;DHT22;57554;51.546;6.776;2023-09-08T05:23:32;17.30;68.20
70184;DHT22;57554;51.546;6.776;2023-09-08T05:25:57;17.30;68.30
70184;DHT22;57554;51.546;6.776;2023-09-08T05:28:23;17.30;68.40
70184;DHT22;57554;51.546;6.776;2023-09-08T05:30:52;17.30;68.40
70184;DHT22;57554;51.546;6.776;2023-09-08T05:33:18;17.30;68.50
70184;DHT22;57554;51.546;6.776;2023-09-08T05:35:44;17.30;68.60
70184;DHT22;57554;51.546;6.776;2023-09-08T05:38:10;17.30;68.70
70184;DHT22;57554;51.546;6.776;2023-09-08T05:40:36;17.30;68.90
70184;DHT22;57554;51.546;6.776;2023-09-08T05:43:01;17.40;68.90
70184;DHT22;57554;51.546;6.776;2023-09-08T05:45:27;17.40;69.00
70184;DHT22;57554;51.546;6.776;2023-09-08T05:47:53;17.40;69.10
70184;DHT22;57554;51.546;6.776;2023-09-08T05:50:18;17.50;69.20
70184;DHT22;57554;51.546;6.776;2023-09-08T05:52:44;17.60;69.40
70184;DHT22;57554;51.546;6.776;2023-09-08T05:55:10;17.70;69.40
70184;DHT22;57554;51.546;6.776;2023-09-08T05:57:35;17.80;69.50
70184;DHT22;57554;51.546;6.776;2023-09-08T06:00:03;18.00;69.40
70184;DHT22;57554;51.546;6.776;2023-09-08T06:02:28;18.20;69.30
70184;DHT22;57554;51.546;6.776;2023-09-08T06:04:54;18.40;69.20
70184;DHT22;57554;51.546;6.776;2023-09-08T06:07:21;18.50;69.10
70184;DHT22;57554;51.546;6.776;2023-09-08T06:09:46;18.70;69.10
70184;DHT22;57554;51.546;6.776;2023-09-08T06:12:12;18.90;69.00
70184;DHT22;57554;51.546;6.776;2023-09-08T06:14:37;19.00;68.80
70184;DHT22;57554;51.546;6.776;2023-09-08T06:17:03;19.20;68.70
70184;DHT22;57554;51.546;6.776;2023-09-08T06:19:29;19.40;68.50
70184;DHT22;57554;51.546;6.776;2023-09-08T06:21:54;19.60;68.40
70184;DHT22;57554;51.546;6.776;2023-09-08T06:24:20;19.70;68.20
70184;DHT22;57554;51.546;6.776;2023-09-08T06:26:45;19.90;68.00
70184;DHT22;57554;51.546;6.776;2023-09-08T06:29:11;20.10;67.80
70184;DHT22;57554;51.546;6.776;2023-09-08T06:31:36;20.30;67.70
70184;DHT22;57554;51.546;6.776;2023-09-08T06:34:02;20.50;67.60
70184;DHT22;57554;51.546;6.776;2023-09-08T06:36:28;20.70;67.30
70184;DHT22;57554;51.546;6.776;2023-09-08T06:38:53;20.90;67.00
70184;DHT22;57554;51.546;6.776;2023-09-08T06:41:19;21.10;66.60
70184;DHT22;57554;51.546;6.776;2023-09-08T06:43:44;21.30;66.50
70184;DHT22;57554;51.546;6.776;2023-09-08T06:46:10;21.50;66.20
70184;DHT22;57554;51.546;6.776;2023-09-08T06:48:36;21.70;65.90
70184;DHT22;57554;51.546;6.776;2023-09-08T06:51:01;21.90;65.70
70184;DHT22;57554;51.546;6.776;2023-09-08T06:53:27;22.10;65.20
70184;DHT22;57554;51.546;6.776;2023-09-08T06:55:52;22.20;64.90
70184;DHT22;57554;51.546;6.776;2023-09-08T06:58:18;22.40;64.50
70184;DHT22;57554;51.546;6.776;2023-09-08T07:00:43;22.60;63.90
70184;DHT22;57554;51.546;6.776;2023-09-08T07:03:09;22.90;63.10
70184;DHT22;57554;51.546;6.776;2023-09-08T07:05:35;23.10;62.70
70184;DHT22;57554;51.546;6.776;2023-09-08T07:08:01;23.40;61.80
70184;DHT22;57554;51.546;6.776;2023-09-08T07:10:26;23.60;61.60
70184;DHT22;57554;51.546;6.776;2023-09-08T07:12:52;23.80;61.10
70184;DHT22;57554;51.546;6.776;2023-09-08T07:15:17;24.00;61.00
70184;DHT22;57554;51.546;6.776;2023-09-08T07:17:43;24.20;60.90
70184;DHT22;57554;51.546;6.776;2023-09-08T07:20:09;24.50;60.50
70184;DHT22;57554;51.546;6.776;2023-09-08T07:22:34;24.70;59.20
70184;DHT22;57554;51.546;6.776;2023-09-08T07:25:00;24.90;58.50
70184;DHT22;57554;51.546;6.776;2023-09-08T07:27:25;25.10;58.40
70184;DHT22;57554;51.546;6.776;2023-09-08T07:29:51;25.30;58.30
70184;DHT22;57554;51.546;6.776;2023-09-08T07:32:17;25.50;57.40
70184;DHT22;57554;51.546;6.776;2023-09-08T07:34:43;25.70;56.30
70184;DHT22;57554;51.546;6.776;2023-09-08T07:37:09;26.00;56.00
70184;DHT22;57554;51.546;6.776;2023-09-08T07:39:34;26.10;55.30
70184;DHT22;57554;51.546;6.776;2023-09-08T07:42:01;26.30;54.20
70184;DHT22;57554;51.546;6.776;2023-09-08T07:44:27;26.50;53.70
70184;DHT22;57554;51.546;6.776;2023-09-08T07:46:52;26.60;53.10
70184;DHT22;57554;51.546;6.776;2023-09-08T07:49:20;26.80;52.40
70184;DHT22;57554;51.546;6.776;2023-09-08T07:51:46;26.80;52.40
70184;DHT22;57554;51.546;6.776;2023-09-08T07:54:12;26.90;52.10
70184;DHT22;57554;51.546;6.776;2023-09-08T07:56:37;27.10;51.90
70184;DHT22;57554;51.546;6.776;2023-09-08T07:59:03;27.20;51.00
70184;DHT22;57554;51.546;6.776;2023-09-08T08:01:28;27.30;50.90
70184;DHT22;57554;51.546;6.776;2023-09-08T08:03:54;27.50;49.80
70184;DHT22;57554;51.546;6.776;2023-09-08T08:06:19;27.60;49.10
70184;DHT22;57554;51.546;6.776;2023-09-08T08:08:45;27.70;49.20
70184;DHT22;57554;51.546;6.776;2023-09-08T08:11:12;27.80;48.90
70184;DHT22;57554;51.546;6.776;2023-09-08T08:13:38;27.90;49.20
70184;DHT22;57554;51.546;6.776;2023-09-08T08:16:04;28.10;48.70
70184;DHT22;57554;51.546;6.776;2023-09-08T08:18:29;28.30;48.60
70184;DHT22;57554;51.546;6.776;2023-09-08T08:20:55;28.50;48.10
70184;DHT22;57554;51.546;6.776;2023-09-08T08:23:20;28.70;47.00
70184;DHT22;57554;51.546;6.776;2023-09-08T08:25:46;28.80;46.10
70184;DHT22;57554;51.546;6.776;2023-09-08T08:28:12;28.80;46.00
70184;DHT22;57554;51.546;6.776;2023-09-08T08:30:37;28.80;45.50
70184;DHT22;57554;51.546;6.776;2023-09-08T08:33:03;28.90;45.40
70184;DHT22;57554;51.546;6.776;2023-09-08T08:35:29;28.90;45.10
70184;DHT22;57554;51.546;6.776;2023-09-08T08:37:57;29.10;45.30
70184;DHT22;57554;51.546;6.776;2023-09-08T08:40:22;29.20;44.60
70184;DHT22;57554;51.546;6.776;2023-09-08T08:42:54;29.20;44.30
70184;DHT22;57554;51.546;6.776;2023-09-08T08:45:25;29.20;44.30
70184;DHT22;57554;51.546;6.776;2023-09-08T08:47:52;29.40;44.70
70184;DHT22;57554;51.546;6.776;2023-09-08T08:50:18;29.60;43.90
70184;DHT22;57554;51.546;6.776;2023-09-08T08:52:45;29.70;43.50
70184;DHT22;57554;51.546;6.776;2023-09-08T08:55:11;29.80;43.30
70184;DHT22;57554;51.546;6.776;2023-09-08T08:57:38;29.90;43.00
70184;DHT22;57554;51.546;6.776;2023-09-08T09:00:07;30.10;43.40
70184;DHT22;57554;51.546;6.776;2023-09-08T09:02:39;30.40;42.70
70184;DHT22;57554;51.546;6.776;2023-09-08T09:05:12;30.50;41.40
70184;DHT22;57554;51.546;6.776;2023-09-08T09:07:42;30.40;41.30
70184;DHT22;57554;51.546;6.776;2023-09-08T09:10:08;30.30;40.30
70184;DHT22;57554;51.546;6.776;2023-09-08T09:12:37;30.20;41.00
70184;DHT22;57554;51.546;6.776;2023-09-08T09:15:03;30.20;41.30
70184;DHT22;57554;51.546;6.776;2023-09-08T09:17:32;30.20;40.70
70184;DHT22;57554;51.546;6.776;2023-09-08T09:20:15;30.30;41.20
70184;DHT22;57554;51.546;6.776;2023-09-08T09:22:43;30.50;40.70
70184;DHT22;57554;51.546;6.776;2023-09-08T09:25:09;30.60;40.80
70184;DHT22;57554;51.546;6.776;2023-09-08T09:27:35;30.80;40.50
70184;DHT22;57554;51.546;6.776;2023-09-08T09:30:03;31.00;40.50
70184;DHT22;57554;51.546;6.776;2023-09-08T09:32:29;31.20;39.20
70184;DHT22;57554;51.546;6.776;2023-09-08T09:34:57;31.20;38.80
70184;DHT22;57554;51.546;6.776;2023-09-08T09:37:23;31.30;39.30
70184;DHT22;57554;51.546;6.776;2023-09-08T09:39:50;31.40;39.60
70184;DHT22;57554;51.546;6.776;2023-09-08T09:42:16;31.70;39.10
70184;DHT22;57554;51.546;6.776;2023-09-08T09:44:42;32.00;38.70
70184;DHT22;57554;51.546;6.776;2023-09-08T09:47:08;32.30;37.70
70184;DHT22;57554;51.546;6.776;2023-09-08T09:49:42;32.40;38.40
70184;DHT22;57554;51.546;6.776;2023-09-08T09:52:08;32.60;38.40
70184;DHT22;57554;51.546;6.776;2023-09-08T09:54:34;32.70;37.70
70184;DHT22;57554;51.546;6.776;2023-09-08T09:57:00;32.60;36.70
70184;DHT22;57554;51.546;6.776;2023-09-08T09:59:27;32.30;36.90
70184;DHT22;57554;51.546;6.776;2023-09-08T10:01:53;32.00;36.50
70184;DHT22;57554;51.546;6.776;2023-09-08T10:04:19;31.80;37.00
70184;DHT22;57554;51.546;6.776;2023-09-08T10:06:45;31.60;37.60
70184;DHT22;57554;51.546;6.776;2023-09-08T10:09:12;31.40;37.80
70184;DHT22;57554;51.546;6.776;2023-09-08T10:11:49;31.30;38.50
70184;DHT22;57554;51.546;6.776;2023-09-08T10:14:16;31.40;38.30
70184;DHT22;57554;51.546;6.776;2023-09-08T10:16:44;31.60;37.80
70184;DHT22;57554;51.546;6.776;2023-09-08T10:19:11;31.70;37.10
70184;DHT22;57554;51.546;6.776;2023-09-08T10:21:41;31.60;37.30
70184;DHT22;57554;51.546;6.776;2023-09-08T10:24:22;31.60;37.70
70184;DHT22;57554;51.546;6.776;2023-09-08T10:27:10;31.70;38.30
70184;DHT22;57554;51.546;6.776;2023-09-08T10:29:36;32.00;38.30
70184;DHT22;57554;51.546;6.776;2023-09-08T10:32:02;32.20;37.60
70184;DHT22;57554;51.546;6.776;2023-09-08T10:34:29;32.30;37.10
70184;DHT22;57554;51.546;6.776;2023-09-08T10:36:56;32.40;37.40
70184;DHT22;57554;51.546;6.776;2023-09-08T10:39:36;32.50;37.40
70184;DHT22;57554;51.546;6.776;2023-09-08T10:42:19;32.70;36.80
70184;DHT22;57554;51.546;6.776;2023-09-08T10:47:23;33.00;37.60
70184;DHT22;57554;51.546;6.776;2023-09-08T10:49:50;33.20;37.00
70184;DHT22;57554;51.546;6.776;2023-09-08T10:52:21;33.40;36.60
70184;DHT22;57554;51.546;6.776;2023-09-08T10:54:54;33.50;35.50
70184;DHT22;57554;51.546;6.776;2023-09-08T10:57:21;33.30;35.10
70184;DHT22;57554;51.546;6.776;2023-09-08T10:59:59;33.10;35.00
70184;DHT22;57554;51.546;6.776;2023-09-08T11:04:58;32.90;36.40
70184;DHT22;57554;51.546;6.776;2023-09-08T11:07:27;32.90;37.00
70184;DHT22;57554;51.546;6.776;2023-09-08T11:09:52;33.00;37.20
70184;DHT22;57554;51.546;6.776;2023-09-08T11:12:18;33.20;36.50
70184;DHT22;57554;51.546;6.776;2023-09-08T11:14:43;33.30;36.20
70184;DHT22;57554;51.546;6.776;2023-09-08T11:17:09;33.50;36.20
70184;DHT22;57554;51.546;6.776;2023-09-08T11:19:48;33.50;36.30
70184;DHT22;57554;51.546;6.776;2023-09-08T11:22:15;33.60;36.50
70184;DHT22;57554;51.546;6.776;2023-09-08T11:24:42;33.60;36.20
70184;DHT22;57554;51.546;6.776;2023-09-08T11:27:09;33.70;35.20
70184;DHT22;57554;51.546;6.776;2023-09-08T11:29:35;33.70;35.20
70184;DHT22;57554;51.546;6.776;2023-09-08T11:32:02;33.40;34.60
70184;DHT22;57554;51.546;6.776;2023-09-08T11:34:29;33.20;35.50
70184;DHT22;57554;51.546;6.776;2023-09-08T11:36:54;33.00;36.40
70184;DHT22;57554;51.546;6.776;2023-09-08T11:39:23;33.00;36.90
70184;DHT22;57554;51.546;6.776;2023-09-08T11:41:50;33.20;36.00
70184;DHT22;57554;51.546;6.776;2023-09-08T11:44:17;33.40;36.10
70184;DHT22;57554;51.546;6.776;2023-09-08T11:46:43;33.70;35.80
70184;DHT22;57554;51.546;6.776;2023-09-08T11:49:09;34.00;36.10
70184;DHT22;57554;51.546;6.776;2023-09-08T11:51:34;34.10;35.60
70184;DHT22;57554;51.546;6.776;2023-09-08T11:54:00;34.30;36.30
70184;DHT22;57554;51.546;6.776;2023-09-08T11:56:26;34.60;36.30
70184;DHT22;57554;51.546;6.776;2023-09-08T11:58:53;34.90;35.20
70184;DHT22;57554;51.546;6.776;2023-09-08T12:01:18;35.00;35.20
70184;DHT22;57554;51.546;6.776;2023-09-08T12:03:54;35.10;34.70
70184;DHT22;57554;51.546;6.776;2023-09-08T12:06:25;35.30;34.60
70184;DHT22;57554;51.546;6.776;2023-09-08T12:08:50;35.50;34.20
70184;DHT22;57554;51.546;6.776;2023-09-08T12:11:16;35.60;33.00
70184;DHT22;57554;51.546;6.776;2023-09-08T12:13:42;35.50;32.10
70184;DHT22;57554;51.546;6.776;2023-09-08T12:16:21;35.20;33.70
70184;DHT22;57554;51.546;6.776;2023-09-08T12:18:50;34.90;34.10
70184;DHT22;57554;51.546;6.776;2023-09-08T12:21:16;34.80;34.00
70184;DHT22;57554;51.546;6.776;2023-09-08T12:23:52;34.80;34.10
70184;DHT22;57554;51.546;6.776;2023-09-08T12:26:18;34.80;34.20
70184;DHT22;57554;51.546;6.776;2023-09-08T12:28:44;34.70;34.40
70184;DHT22;57554;51.546;6.776;2023-09-08T12:31:10;34.70;33.30
70184;DHT22;57554;51.546;6.776;2023-09-08T12:33:35;34.80;34.10
70184;DHT22;57554;51.546;6.776;2023-09-08T12:36:16;34.80;33.70
70184;DHT22;57554;51.546;6.776;2023-09-08T12:38:47;34.90;34.40
70184;DHT22;57554;51.546;6.776;2023-09-08T12:41:13;35.00;33.60
70184;DHT22;57554;51.546;6.776;2023-09-08T12:43:38;35.10;34.00
70184;DHT22;57554;51.546;6.776;2023-09-08T12:46:04;35.10;33.70
70184;DHT22;57554;51.546;6.776;2023-09-08T12:48:29;35.00;33.90
70184;DHT22;57554;51.546;6.776;2023-09-08T12:50:55;34.90;33.60
70184;DHT22;57554;51.546;6.776;2023-09-08T12:53:21;34.80;33.80
70184;DHT22;57554;51.546;6.776;2023-09-08T12:55:48;34.70;33.90
70184;DHT22;57554;51.546;6.776;2023-09-08T12:58:15;34.80;33.70
70184;DHT22;57554;51.546;6.776;2023-09-08T13:00:40;34.80;33.90
70184;DHT22;57554;51.546;6.776;2023-09-08T13:03:06;34.80;34.10
70184;DHT22;57554;51.546;6.776;2023-09-08T13:05:31;34.70;34.50
70184;DHT22;57554;51.546;6.776;2023-09-08T13:07:57;34.60;34.70
70184;DHT22;57554;51.546;6.776;2023-09-08T13:10:23;34.60;34.00
70184;DHT22;57554;51.546;6.776;2023-09-08T13:12:49;34.70;34.20
70184;DHT22;57554;51.546;6.776;2023-09-08T13:15:14;34.80;33.70
70184;DHT22;57554;51.546;6.776;2023-09-08T13:17:40;34.80;34.10
70184;DHT22;57554;51.546;6.776;2023-09-08T13:20:06;34.80;34.50
70184;DHT22;57554;51.546;6.776;2023-09-08T13:22:32;34.80;34.50
70184;DHT22;57554;51.546;6.776;2023-09-08T13:24:58;34.80;34.60
70184;DHT22;57554;51.546;6.776;2023-09-08T13:27:23;34.80;34.30
70184;DHT22;57554;51.546;6.776;2023-09-08T13:29:49;34.80;34.00
70184;DHT22;57554;51.546;6.776;2023-09-08T13:32:15;34.80;34.90
70184;DHT22;57554;51.546;6.776;2023-09-08T13:34:40;34.70;34.20
70184;DHT22;57554;51.546;6.776;2023-09-08T13:37:08;34.70;34.60
70184;DHT22;57554;51.546;6.776;2023-09-08T13:39:34;34.70;34.20
70184;DHT22;57554;51.546;6.776;2023-09-08T13:42:01;34.60;34.10
70184;DHT22;57554;51.546;6.776;2023-09-08T13:44:26;34.70;33.40
70184;DHT22;57554;51.546;6.776;2023-09-08T13:46:53;34.70;34.30
70184;DHT22;57554;51.546;6.776;2023-09-08T13:49:19;34.70;33.60
70184;DHT22;57554;51.546;6.776;2023-09-08T13:51:45;34.80;33.60
70184;DHT22;57554;51.546;6.776;2023-09-08T13:54:11;34.70;33.20
70184;DHT22;57554;51.546;6.776;2023-09-08T13:56:41;34.70;33.90
70184;DHT22;57554;51.546;6.776;2023-09-08T13:59:08;34.70;33.80
70184;DHT22;57554;51.546;6.776;2023-09-08T14:01:34;34.60;33.70
70184;DHT22;57554;51.546;6.776;2023-09-08T14:04:01;34.60;34.20
70184;DHT22;57554;51.546;6.776;2023-09-08T14:06:27;34.50;33.90
70184;DHT22;57554;51.546;6.776;2023-09-08T14:08:53;34.40;33.70
70184;DHT22;57554;51.546;6.776;2023-09-08T14:11:19;34.30;33.60
70184;DHT22;57554;51.546;6.776;2023-09-08T14:13:45;34.30;33.70
70184;DHT22;57554;51.546;6.776;2023-09-08T14:16:13;34.30;33.30
70184;DHT22;57554;51.546;6.776;2023-09-08T14:18:39;34.30;33.40
70184;DHT22;57554;51.546;6.776;2023-09-08T14:21:09;34.30;33.20
70184;DHT22;57554;51.546;6.776;2023-09-08T14:23:34;34.30;33.60
70184;DHT22;57554;51.546;6.776;2023-09-08T14:26:00;34.20;34.30
70184;DHT22;57554;51.546;6.776;2023-09-08T14:28:26;34.30;34.30
70184;DHT22;57554;51.546;6.776;2023-09-08T14:30:53;34.30;34.20
70184;DHT22;57554;51.546;6.776;2023-09-08T14:33:19;34.30;34.20
70184;DHT22;57554;51.546;6.776;2023-09-08T14:35:44;34.40;34.90
70184;DHT22;57554;51.546;6.776;2023-09-08T14:38:12;34.40;34.00
70184;DHT22;57554;51.546;6.776;2023-09-08T14:40:38;34.40;34.30
70184;DHT22;57554;51.546;6.776;2023-09-08T14:43:04;34.40;34.40
70184;DHT22;57554;51.546;6.776;2023-09-08T14:45:29;34.30;34.00
70184;DHT22;57554;51.546;6.776;2023-09-08T14:47:55;34.30;33.90
70184;DHT22;57554;51.546;6.776;2023-09-08T14:50:20;34.30;34.70
70184;DHT22;57554;51.546;6.776;2023-09-08T14:52:46;34.30;34.20
70184;DHT22;57554;51.546;6.776;2023-09-08T14:55:11;34.30;34.00
70184;DHT22;57554;51.546;6.776;2023-09-08T14:57:37;34.10;33.90
70184;DHT22;57554;51.546;6.776;2023-09-08T15:00:04;34.00;33.80
70184;DHT22;57554;51.546;6.776;2023-09-08T15:02:30;33.90;33.80
70184;DHT22;57554;51.546;6.776;2023-09-08T15:04:56;33.90;34.00
70184;DHT22;57554;51.546;6.776;2023-09-08T15:07:21;33.90;34.20
70184;DHT22;57554;51.546;6.776;2023-09-08T15:09:47;33.90;34.20
70184;DHT22;57554;51.546;6.776;2023-09-08T15:12:13;33.90;34.00
70184;DHT22;57554;51.546;6.776;2023-09-08T15:14:38;33.90;33.80
70184;DHT22;57554;51.546;6.776;2023-09-08T15:17:05;33.90;33.80
70184;DHT22;57554;51.546;6.776;2023-09-08T15:19:30;33.80;33.90
70184;DHT22;57554;51.546;6.776;2023-09-08T15:21:56;33.80;34.20
70184;DHT22;57554;51.546;6.776;2023-09-08T15:24:21;33.80;34.60
70184;DHT22;57554;51.546;6.776;2023-09-08T15:26:47;33.80;35.00
70184;DHT22;57554;51.546;6.776;2023-09-08T15:29:12;33.80;35.50
70184;DHT22;57554;51.546;6.776;2023-09-08T15:31:38;33.90;35.70
70184;DHT22;57554;51.546;6.776;2023-09-08T15:34:04;33.90;35.90
70184;DHT22;57554;51.546;6.776;2023-09-08T15:36:29;33.90;35.40
70184;DHT22;57554;51.546;6.776;2023-09-08T15:38:55;33.90;35.10